sensor_id;sensor_type;location;lat;lon;timestamp;temperature;humidity
4215;DHT22;2121;48.062;7.850;2023-04-16T00:02:18;8.30;99.90
4215;DHT22;2121;48.062;7.850;2023-04-16T00:04:44;8.40;99.90
4215;DHT22;2121;48.062;7.850;2023-04-16T00:07:10;8.40;99.90
4215;DHT22;2121;48.062;7.850;2023-04-16T00:09:35;8.40;99.90
4215;DHT22;2121;48.062;7.850;2023-04-16T00:12:02;8.50;99.90
4215;DHT22;2121;48.062;7.850;2023-04-16T00:14:28;8.40;99.90
4215;DHT22;2121;48.062;7.850;2023-04-16T00:16:54;8.50;99.90
4215;DHT22;2121;48.062;7.850;2023-04-16T00:19:20;8.50;99.90
4215;DHT22;2121;48.062;7.850;2023-04-16T00:21:46;8.40;99.90
4215;DHT22;2121;48.062;7.850;2023-04-16T00:24:12;8.30;99.90
4215;DHT22;2121;48.062;7.850;2023-04-16T00:26:37;8.30;99.90
4215;DHT22;2121;48.062;7.850;2023-04-16T00:29:03;8.30;99.90
4215;DHT22;2121;48.062;7.850;2023-04-16T00:31:30;8.30;99.90
4215;DHT22;2121;48.062;7.850;2023-04-16T00:33:57;8.40;99.90
4215;DHT22;2121;48.062;7.850;2023-04-16T00:36:24;8.50;99.90
4215;DHT22;2121;48.062;7.850;2023-04-16T00:38:52;8.50;99.90
4215;DHT22;2121;48.062;7.850;2023-04-16T00:41:18;8.50;99.90
4215;DHT22;2121;48.062;7.850;2023-04-16T00:43:44;8.50;99.90
4215;DHT22;2121;48.062;7.850;2023-04-16T00:46:11;8.60;99.90
4215;DHT22;2121;48.062;7.850;2023-04-16T00:48:38;8.50;99.90
4215;DHT22;2121;48.062;7.850;2023-04-16T00:51:07;8.50;99.90
4215;DHT22;2121;48.062;7.850;2023-04-16T00:53:33;8.40;99.90
4215;DHT22;2121;48.062;7.850;2023-04-16T00:56:02;8.40;99.90
4215;DHT22;2121;48.062;7.850;2023-04-16T00:58:29;8.40;99.90
4215;DHT22;2121;48.062;7.850;2023-04-16T01:00:55;8.40;99.90
4215;DHT22;2121;48.062;7.850;2023-04-16T01:03:22;8.30;99.90
4215;DHT22;2121;48.062;7.850;2023-04-16T01:05:48;8.30;99.90
4215;DHT22;2121;48.062;7.850;2023-04-16T01:08:20;8.30;99.90
4215;DHT22;2121;48.062;7.850;2023-04-16T01:10:46;8.30;99.90
4215;DHT22;2121;48.062;7.850;2023-04-16T01:13:12;8.30;99.90
4215;DHT22;2121;48.062;7.850;2023-04-16T01:15:38;8.40;99.90
4215;DHT22;2121;48.062;7.850;2023-04-16T01:18:17;8.40;99.90
4215;DHT22;2121;48.062;7.850;2023-04-16T01:20:44;8.40;99.90
4215;DHT22;2121;48.062;7.850;2023-04-16T01:23:16;8.30;99.90
4215;DHT22;2121;48.062;7.850;2023-04-16T01:25:46;8.30;99.90
4215;DHT22;2121;48.062;7.850;2023-04-16T01:28:12;8.40;99.90
4215;DHT22;2121;48.062;7.850;2023-04-16T01:30:37;8.40;99.90
4215;DHT22;2121;48.062;7.850;2023-04-16T01:33:03;8.40;99.90
4215;DHT22;2121;48.062;7.850;2023-04-16T01:35:29;8.20;99.90
4215;DHT22;2121;48.062;7.850;2023-04-16T01:37:55;8.40;99.90
4215;DHT22;2121;48.062;7.850;2023-04-16T01:40:21;8.40;99.90
4215;DHT22;2121;48.062;7.850;2023-04-16T01:42:46;8.40;99.90
4215;DHT22;2121;48.062;7.850;2023-04-16T01:45:12;8.50;99.90
4215;DHT22;2121;48.062;7.850;2023-04-16T01:47:38;8.40;99.90
4215;DHT22;2121;48.062;7.850;2023-04-16T01:50:05;8.40;99.90
4215;DHT22;2121;48.062;7.850;2023-04-16T01:52:31;8.50;99.90
4215;DHT22;2121;48.062;7.850;2023-04-16T01:54:56;8.50;99.90
4215;DHT22;2121;48.062;7.850;2023-04-16T01:57:22;8.50;99.90
4215;DHT22;2121;48.062;7.850;2023-04-16T01:59:48;8.40;99.90
4215;DHT22;2121;48.062;7.850;2023-04-16T02:02:15;8.50;99.90
4215;DHT22;2121;48.062;7.850;2023-04-16T02:04:42;8.50;99.90
4215;DHT22;2121;48.062;7.850;2023-04-16T02:07:10;8.50;99.90
4215;DHT22;2121;48.062;7.850;2023-04-16T02:09:39;8.50;99.90
4215;DHT22;2121;48.062;7.850;2023-04-16T02:12:06;8.40;99.90
4215;DHT22;2121;48.062;7.850;2023-04-16T02:14:32;8.50;99.90
4215;DHT22;2121;48.062;7.850;2023-04-16T02:16:59;8.50;99.90
4215;DHT22;2121;48.062;7.850;2023-04-16T02:19:25;8.50;99.90
4215;DHT22;2121;48.062;7.850;2023-04-16T02:21:51;8.50;99.90
4215;DHT22;2121;48.062;7.850;2023-04-16T02:24:18;8.50;99.90
4215;DHT22;2121;48.062;7.850;2023-04-16T02:26:44;8.50;99.90
4215;DHT22;2121;48.062;7.850;2023-04-16T02:29:10;8.60;99.90
4215;DHT22;2121;48.062;7.850;2023-04-16T02:31:36;8.60;99.90
4215;DHT22;2121;48.062;7.850;2023-04-16T02:34:02;8.60;99.90
4215;DHT22;2121;48.062;7.850;2023-04-16T02:36:28;8.60;99.90
4215;DHT22;2121;48.062;7.850;2023-04-16T02:38:56;8.50;99.90
4215;DHT22;2121;48.062;7.850;2023-04-16T02:41:22;8.50;99.90
4215;DHT22;2121;48.062;7.850;2023-04-16T02:43:47;8.50;99.90
4215;DHT22;2121;48.062;7.850;2023-04-16T02:46:13;8.60;99.90
4215;DHT22;2121;48.062;7.850;2023-04-16T02:48:39;8.60;99.90
4215;DHT22;2121;48.062;7.850;2023-04-16T02:51:05;8.60;99.90
4215;DHT22;2121;48.062;7.850;2023-04-16T02:53:30;8.50;99.90
4215;DHT22;2121;48.062;7.850;2023-04-16T02:55:56;8.50;99.90
4215;DHT22;2121;48.062;7.850;2023-04-16T02:58:23;8.50;99.90
4215;DHT22;2121;48.062;7.850;2023-04-16T03:00:51;8.50;99.90
4215;DHT22;2121;48.062;7.850;2023-04-16T03:03:17;8.40;99.90
4215;DHT22;2121;48.062;7.850;2023-04-16T03:05:43;8.50;99.90
4215;DHT22;2121;48.062;7.850;2023-04-16T03:08:09;8.50;99.90
4215;DHT22;2121;48.062;7.850;2023-04-16T03:10:36;8.50;99.90
4215;DHT22;2121;48.062;7.850;2023-04-16T03:13:02;8.50;99.90
4215;DHT22;2121;48.062;7.850;2023-04-16T03:15:28;8.40;99.90
4215;DHT22;2121;48.062;7.850;2023-04-16T03:17:55;8.40;99.90
4215;DHT22;2121;48.062;7.850;2023-04-16T03:20:21;8.40;99.90
4215;DHT22;2121;48.062;7.850;2023-04-16T03:22:47;8.30;99.90
4215;DHT22;2121;48.062;7.850;2023-04-16T03:25:13;8.40;99.90
4215;DHT22;2121;48.062;7.850;2023-04-16T03:27:39;8.40;99.90
4215;DHT22;2121;48.062;7.850;2023-04-16T03:30:06;8.40;99.90
4215;DHT22;2121;48.062;7.850;2023-04-16T03:32:32;8.40;99.90
4215;DHT22;2121;48.062;7.850;2023-04-16T03:34:58;8.40;99.90
4215;DHT22;2121;48.062;7.850;2023-04-16T03:37:24;8.40;99.90
4215;DHT22;2121;48.062;7.850;2023-04-16T03:39:50;8.30;99.90
4215;DHT22;2121;48.062;7.850;2023-04-16T03:42:16;8.30;99.90
4215;DHT22;2121;48.062;7.850;2023-04-16T03:44:41;8.30;99.90
4215;DHT22;2121;48.062;7.850;2023-04-16T03:47:07;8.30;99.90
4215;DHT22;2121;48.062;7.850;2023-04-16T03:49:33;8.30;99.90
4215;DHT22;2121;48.062;7.850;2023-04-16T03:51:59;8.30;99.90
4215;DHT22;2121;48.062;7.850;2023-04-16T03:54:24;8.30;99.90
4215;DHT22;2121;48.062;7.850;2023-04-16T03:56:50;8.30;99.90
4215;DHT22;2121;48.062;7.850;2023-04-16T03:59:16;8.30;99.90
4215;DHT22;2121;48.062;7.850;2023-04-16T04:01:42;8.30;99.90
4215;DHT22;2121;48.062;7.850;2023-04-16T04:04:08;8.40;99.90
4215;DHT22;2121;48.062;7.850;2023-04-16T04:06:34;8.40;99.90
4215;DHT22;2121;48.062;7.850;2023-04-16T04:09:00;8.50;99.90
4215;DHT22;2121;48.062;7.850;2023-04-16T04:11:26;8.50;99.90
4215;DHT22;2121;48.062;7.850;2023-04-16T04:13:52;8.50;99.90
4215;DHT22;2121;48.062;7.850;2023-04-16T04:16:18;8.60;99.90
4215;DHT22;2121;48.062;7.850;2023-04-16T04:18:44;8.70;99.90
4215;DHT22;2121;48.062;7.850;2023-04-16T04:21:09;8.60;99.90
4215;DHT22;2121;48.062;7.850;2023-04-16T04:23:35;8.60;99.90
4215;DHT22;2121;48.062;7.850;2023-04-16T04:26:02;8.40;99.90
4215;DHT22;2121;48.062;7.850;2023-04-16T04:28:30;8.50;99.90
4215;DHT22;2121;48.062;7.850;2023-04-16T04:30:57;8.50;99.90
4215;DHT22;2121;48.062;7.850;2023-04-16T04:33:27;8.50;99.90
4215;DHT22;2121;48.062;7.850;2023-04-16T04:35:53;8.50;99.90
4215;DHT22;2121;48.062;7.850;2023-04-16T04:38:20;8.50;99.90
4215;DHT22;2121;48.062;7.850;2023-04-16T04:40:47;8.50;99.90
4215;DHT22;2121;48.062;7.850;2023-04-16T04:43:13;8.50;99.90
4215;DHT22;2121;48.062;7.850;2023-04-16T04:45:39;8.50;99.90
4215;DHT22;2121;48.062;7.850;2023-04-16T04:48:05;8.60;99.90
4215;DHT22;2121;48.062;7.850;2023-04-16T04:50:31;8.50;99.90
4215;DHT22;2121;48.062;7.850;2023-04-16T04:52:56;8.50;99.90
4215;DHT22;2121;48.062;7.850;2023-04-16T04:55:22;8.40;99.90
4215;DHT22;2121;48.062;7.850;2023-04-16T04:57:49;8.50;99.90
4215;DHT22;2121;48.062;7.850;2023-04-16T05:00:15;8.50;99.90
4215;DHT22;2121;48.062;7.850;2023-04-16T05:02:41;8.50;99.90
4215;DHT22;2121;48.062;7.850;2023-04-16T05:05:07;8.50;99.90
4215;DHT22;2121;48.062;7.850;2023-04-16T05:07:33;8.60;99.90
4215;DHT22;2121;48.062;7.850;2023-04-16T05:09:58;8.70;99.90
4215;DHT22;2121;48.062;7.850;2023-04-16T05:12:25;8.70;99.90
4215;DHT22;2121;48.062;7.850;2023-04-16T05:14:51;8.60;99.90
4215;DHT22;2121;48.062;7.850;2023-04-16T05:17:16;8.60;99.90
4215;DHT22;2121;48.062;7.850;2023-04-16T05:19:42;8.60;99.90
4215;DHT22;2121;48.062;7.850;2023-04-16T05:22:08;8.60;99.90
4215;DHT22;2121;48.062;7.850;2023-04-16T05:24:33;8.60;99.90
4215;DHT22;2121;48.062;7.850;2023-04-16T05:26:59;8.60;99.90
4215;DHT22;2121;48.062;7.850;2023-04-16T05:29:25;8.70;99.90
4215;DHT22;2121;48.062;7.850;2023-04-16T05:31:51;8.70;99.90
4215;DHT22;2121;48.062;7.850;2023-04-16T05:34:17;8.70;99.90
4215;DHT22;2121;48.062;7.850;2023-04-16T05:36:43;8.70;99.90
4215;DHT22;2121;48.062;7.850;2023-04-16T05:39:08;8.70;99.90
4215;DHT22;2121;48.062;7.850;2023-04-16T05:41:35;8.70;99.90
4215;DHT22;2121;48.062;7.850;2023-04-16T05:44:00;8.60;99.90
4215;DHT22;2121;48.062;7.850;2023-04-16T05:46:26;8.60;99.90
4215;DHT22;2121;48.062;7.850;2023-04-16T05:48:52;8.60;99.90
4215;DHT22;2121;48.062;7.850;2023-04-16T05:51:17;8.60;99.90
4215;DHT22;2121;48.062;7.850;2023-04-16T05:53:44;8.70;99.90
4215;DHT22;2121;48.062;7.850;2023-04-16T05:56:10;8.70;99.90
4215;DHT22;2121;48.062;7.850;2023-04-16T05:58:35;8.60;99.90
4215;DHT22;2121;48.062;7.850;2023-04-16T06:01:01;8.50;99.90
4215;DHT22;2121;48.062;7.850;2023-04-16T06:03:27;8.40;99.90
4215;DHT22;2121;48.062;7.850;2023-04-16T06:05:53;8.40;99.90
4215;DHT22;2121;48.062;7.850;2023-04-16T06:08:19;8.40;99.90
4215;DHT22;2121;48.062;7.850;2023-04-16T06:10:45;8.40;99.90
4215;DHT22;2121;48.062;7.850;2023-04-16T06:13:11;8.50;99.90
4215;DHT22;2121;48.062;7.850;2023-04-16T06:15:37;8.70;99.90
4215;DHT22;2121;48.062;7.850;2023-04-16T06:18:03;8.80;99.90
4215;DHT22;2121;48.062;7.850;2023-04-16T06:20:29;8.80;99.90
4215;DHT22;2121;48.062;7.850;2023-04-16T06:22:55;8.80;99.90
4215;DHT22;2121;48.062;7.850;2023-04-16T06:25:21;8.80;99.90
4215;DHT22;2121;48.062;7.850;2023-04-16T06:27:47;8.70;99.90
4215;DHT22;2121;48.062;7.850;2023-04-16T06:30:13;8.60;99.90
4215;DHT22;2121;48.062;7.850;2023-04-16T06:32:41;8.60;99.90
4215;DHT22;2121;48.062;7.850;2023-04-16T06:35:08;8.70;99.90
4215;DHT22;2121;48.062;7.850;2023-04-16T06:37:34;8.80;99.90
4215;DHT22;2121;48.062;7.850;2023-04-16T06:40:00;8.80;99.90
4215;DHT22;2121;48.062;7.850;2023-04-16T06:42:26;8.70;99.90
4215;DHT22;2121;48.062;7.850;2023-04-16T06:44:51;8.70;99.90
4215;DHT22;2121;48.062;7.850;2023-04-16T06:47:17;8.60;99.90
4215;DHT22;2121;48.062;7.850;2023-04-16T06:49:43;8.30;99.90
4215;DHT22;2121;48.062;7.850;2023-04-16T06:52:09;8.20;99.90
4215;DHT22;2121;48.062;7.850;2023-04-16T06:54:35;8.20;99.90
4215;DHT22;2121;48.062;7.850;2023-04-16T06:57:00;8.10;99.90
4215;DHT22;2121;48.062;7.850;2023-04-16T06:59:26;8.10;99.90
4215;DHT22;2121;48.062;7.850;2023-04-16T07:01:52;8.00;99.90
4215;DHT22;2121;48.062;7.850;2023-04-16T07:04:18;8.00;99.90
4215;DHT22;2121;48.062;7.850;2023-04-16T07:06:43;8.00;99.90
4215;DHT22;2121;48.062;7.850;2023-04-16T07:09:09;8.10;99.90
4215;DHT22;2121;48.062;7.850;2023-04-16T07:11:35;8.00;99.90
4215;DHT22;2121;48.062;7.850;2023-04-16T07:14:01;8.00;99.90
4215;DHT22;2121;48.062;7.850;2023-04-16T07:16:26;7.90;99.90
4215;DHT22;2121;48.062;7.850;2023-04-16T07:18:52;7.90;99.90
4215;DHT22;2121;48.062;7.850;2023-04-16T07:21:18;7.90;99.90
4215;DHT22;2121;48.062;7.850;2023-04-16T07:23:44;7.90;99.90
4215;DHT22;2121;48.062;7.850;2023-04-16T07:26:10;7.90;99.90
4215;DHT22;2121;48.062;7.850;2023-04-16T07:28:36;7.90;99.90
4215;DHT22;2121;48.062;7.850;2023-04-16T07:31:02;8.00;99.90
4215;DHT22;2121;48.062;7.850;2023-04-16T07:33:27;8.10;99.90
4215;DHT22;2121;48.062;7.850;2023-04-16T07:35:53;8.10;99.90
4215;DHT22;2121;48.062;7.850;2023-04-16T07:38:19;8.10;99.90
4215;DHT22;2121;48.062;7.850;2023-04-16T07:40:45;8.10;99.90
4215;DHT22;2121;48.062;7.850;2023-04-16T07:43:12;8.10;99.90
4215;DHT22;2121;48.062;7.850;2023-04-16T07:45:41;8.10;99.90
4215;DHT22;2121;48.062;7.850;2023-04-16T07:48:06;8.20;99.90
4215;DHT22;2121;48.062;7.850;2023-04-16T07:50:32;8.20;99.90
4215;DHT22;2121;48.062;7.850;2023-04-16T07:52:58;8.10;99.90
4215;DHT22;2121;48.062;7.850;2023-04-16T07:55:23;8.10;99.90
4215;DHT22;2121;48.062;7.850;2023-04-16T07:57:49;8.10;99.90
4215;DHT22;2121;48.062;7.850;2023-04-16T08:00:15;8.20;99.90
4215;DHT22;2121;48.062;7.850;2023-04-16T08:02:42;8.40;99.90
4215;DHT22;2121;48.062;7.850;2023-04-16T08:05:08;8.30;99.90
4215;DHT22;2121;48.062;7.850;2023-04-16T08:07:35;8.30;99.90
4215;DHT22;2121;48.062;7.850;2023-04-16T08:10:01;8.30;99.90
4215;DHT22;2121;48.062;7.850;2023-04-16T08:12:27;8.20;99.90
4215;DHT22;2121;48.062;7.850;2023-04-16T08:14:53;8.30;99.90
4215;DHT22;2121;48.062;7.850;2023-04-16T08:17:19;8.30;99.90
4215;DHT22;2121;48.062;7.850;2023-04-16T08:19:45;8.30;99.90
4215;DHT22;2121;48.062;7.850;2023-04-16T08:22:11;8.40;99.90
4215;DHT22;2121;48.062;7.850;2023-04-16T08:24:38;8.30;99.90
4215;DHT22;2121;48.062;7.850;2023-04-16T08:27:04;8.20;99.90
4215;DHT22;2121;48.062;7.850;2023-04-16T08:29:30;8.20;99.90
4215;DHT22;2121;48.062;7.850;2023-04-16T08:31:56;8.20;99.90
4215;DHT22;2121;48.062;7.850;2023-04-16T08:34:23;8.10;99.90
4215;DHT22;2121;48.062;7.850;2023-04-16T08:36:49;8.00;99.90
4215;DHT22;2121;48.062;7.850;2023-04-16T08:39:15;8.00;99.90
4215;DHT22;2121;48.062;7.850;2023-04-16T08:41:42;7.90;99.90
4215;DHT22;2121;48.062;7.850;2023-04-16T08:44:13;7.80;99.90
4215;DHT22;2121;48.062;7.850;2023-04-16T08:46:52;7.80;99.90
4215;DHT22;2121;48.062;7.850;2023-04-16T08:49:25;7.80;99.90
4215;DHT22;2121;48.062;7.850;2023-04-16T08:51:55;7.80;99.90
4215;DHT22;2121;48.062;7.850;2023-04-16T08:57:17;7.80;99.90
4215;DHT22;2121;48.062;7.850;2023-04-16T08:59:47;7.80;99.90
4215;DHT22;2121;48.062;7.850;2023-04-16T09:02:13;7.90;99.90
4215;DHT22;2121;48.062;7.850;2023-04-16T09:04:40;7.90;99.90
4215;DHT22;2121;48.062;7.850;2023-04-16T09:07:07;7.80;99.90
4215;DHT22;2121;48.062;7.850;2023-04-16T09:09:34;7.80;99.90
4215;DHT22;2121;48.062;7.850;2023-04-16T09:12:00;7.80;99.90
4215;DHT22;2121;48.062;7.850;2023-04-16T09:14:26;7.80;99.90
4215;DHT22;2121;48.062;7.850;2023-04-16T09:16:52;7.90;99.90
4215;DHT22;2121;48.062;7.850;2023-04-16T09:19:22;7.90;99.90
4215;DHT22;2121;48.062;7.850;2023-04-16T09:21:48;8.00;99.90
4215;DHT22;2121;48.062;7.850;2023-04-16T09:24:15;7.90;99.90
4215;DHT22;2121;48.062;7.850;2023-04-16T09:26:41;8.00;99.90
4215;DHT22;2121;48.062;7.850;2023-04-16T09:29:08;8.20;99.90
4215;DHT22;2121;48.062;7.850;2023-04-16T09:31:34;8.10;99.90
4215;DHT22;2121;48.062;7.850;2023-04-16T09:34:05;8.10;99.90
4215;DHT22;2121;48.062;7.850;2023-04-16T09:36:33;8.10;99.90
4215;DHT22;2121;48.062;7.850;2023-04-16T09:39:00;8.10;99.90
4215;DHT22;2121;48.062;7.850;2023-04-16T09:41:31;8.10;99.90
4215;DHT22;2121;48.062;7.850;2023-04-16T09:44:02;8.10;99.90
4215;DHT22;2121;48.062;7.850;2023-04-16T09:46:39;8.10;99.90
4215;DHT22;2121;48.062;7.850;2023-04-16T09:49:12;8.30;99.90
4215;DHT22;2121;48.062;7.850;2023-04-16T09:51:42;8.20;99.90
4215;DHT22;2121;48.062;7.850;2023-04-16T09:54:11;8.30;99.90
4215;DHT22;2121;48.062;7.850;2023-04-16T09:56:44;8.40;99.90
4215;DHT22;2121;48.062;7.850;2023-04-16T09:59:20;8.40;99.90
4215;DHT22;2121;48.062;7.850;2023-04-16T10:01:47;8.20;99.90
4215;DHT22;2121;48.062;7.850;2023-04-16T10:04:18;8.30;99.90
4215;DHT22;2121;48.062;7.850;2023-04-16T10:07:02;8.20;99.90
4215;DHT22;2121;48.062;7.850;2023-04-16T10:09:36;8.20;99.90
4215;DHT22;2121;48.062;7.850;2023-04-16T10:12:03;8.10;99.90
4215;DHT22;2121;48.062;7.850;2023-04-16T10:14:29;8.10;99.90
4215;DHT22;2121;48.062;7.850;2023-04-16T10:16:55;8.00;99.90
4215;DHT22;2121;48.062;7.850;2023-04-16T10:19:23;8.00;99.90
4215;DHT22;2121;48.062;7.850;2023-04-16T10:21:49;8.00;99.90
4215;DHT22;2121;48.062;7.850;2023-04-16T10:24:15;8.10;99.90
4215;DHT22;2121;48.062;7.850;2023-04-16T10:26:43;8.10;99.90
4215;DHT22;2121;48.062;7.850;2023-04-16T10:29:10;8.10;99.90
4215;DHT22;2121;48.062;7.850;2023-04-16T10:31:38;8.30;99.90
4215;DHT22;2121;48.062;7.850;2023-04-16T10:34:06;8.40;99.90
4215;DHT22;2121;48.062;7.850;2023-04-16T10:36:37;8.50;99.90
4215;DHT22;2121;48.062;7.850;2023-04-16T10:39:11;8.50;99.90
4215;DHT22;2121;48.062;7.850;2023-04-16T10:41:38;8.60;99.90
4215;DHT22;2121;48.062;7.850;2023-04-16T10:44:06;8.60;99.90
4215;DHT22;2121;48.062;7.850;2023-04-16T10:46:37;8.60;99.90
4215;DHT22;2121;48.062;7.850;2023-04-16T10:51:39;8.90;99.90
4215;DHT22;2121;48.062;7.850;2023-04-16T10:56:39;8.60;99.90
4215;DHT22;2121;48.062;7.850;2023-04-16T10:59:08;8.50;99.90
4215;DHT22;2121;48.062;7.850;2023-04-16T11:01:52;8.40;99.90
4215;DHT22;2121;48.062;7.850;2023-04-16T11:10:00;8.60;99.90
4215;DHT22;2121;48.062;7.850;2023-04-16T11:17:32;9.20;99.90
4215;DHT22;2121;48.062;7.850;2023-04-16T11:20:02;9.20;99.90
4215;DHT22;2121;48.062;7.850;2023-04-16T11:22:29;9.20;99.90
4215;DHT22;2121;48.062;7.850;2023-04-16T11:24:55;9.20;99.90
4215;DHT22;2121;48.062;7.850;2023-04-16T11:27:24;9.30;99.90
4215;DHT22;2121;48.062;7.850;2023-04-16T11:30:01;9.50;99.90
4215;DHT22;2121;48.062;7.850;2023-04-16T11:32:33;9.80;99.90
4215;DHT22;2121;48.062;7.850;2023-04-16T11:35:01;9.90;99.90
4215;DHT22;2121;48.062;7.850;2023-04-16T11:37:36;10.10;99.90
4215;DHT22;2121;48.062;7.850;2023-04-16T11:40:04;10.30;99.90
4215;DHT22;2121;48.062;7.850;2023-04-16T11:42:32;10.40;99.90
4215;DHT22;2121;48.062;7.850;2023-04-16T11:45:01;10.50;99.90
4215;DHT22;2121;48.062;7.850;2023-04-16T11:47:29;10.60;99.90
4215;DHT22;2121;48.062;7.850;2023-04-16T11:49:56;10.40;99.90
4215;DHT22;2121;48.062;7.850;2023-04-16T11:52:31;10.20;99.90
4215;DHT22;2121;48.062;7.850;2023-04-16T11:54:58;10.20;99.90
4215;DHT22;2121;48.062;7.850;2023-04-16T11:57:30;10.40;99.90
4215;DHT22;2121;48.062;7.850;2023-04-16T11:59:57;10.60;99.90
4215;DHT22;2121;48.062;7.850;2023-04-16T12:02:53;10.80;99.90
4215;DHT22;2121;48.062;7.850;2023-04-16T12:05:27;10.80;99.90
4215;DHT22;2121;48.062;7.850;2023-04-16T12:08:07;10.60;99.90
4215;DHT22;2121;48.062;7.850;2023-04-16T12:10:36;10.30;99.90
4215;DHT22;2121;48.062;7.850;2023-04-16T12:13:12;10.10;99.90
4215;DHT22;2121;48.062;7.850;2023-04-16T12:18:24;10.10;99.90
4215;DHT22;2121;48.062;7.850;2023-04-16T12:20:53;10.10;99.90
4215;DHT22;2121;48.062;7.850;2023-04-16T12:25:53;9.90;99.90
4215;DHT22;2121;48.062;7.850;2023-04-16T12:28:33;9.90;99.90
4215;DHT22;2121;48.062;7.850;2023-04-16T12:31:01;10.10;99.90
4215;DHT22;2121;48.062;7.850;2023-04-16T12:33:27;10.10;99.90
4215;DHT22;2121;48.062;7.850;2023-04-16T12:35:53;10.10;99.90
4215;DHT22;2121;48.062;7.850;2023-04-16T12:38:19;9.90;99.90
4215;DHT22;2121;48.062;7.850;2023-04-16T12:40:45;9.70;99.90
4215;DHT22;2121;48.062;7.850;2023-04-16T12:43:11;9.60;99.90
4215;DHT22;2121;48.062;7.850;2023-04-16T12:45:38;9.60;99.90
4215;DHT22;2121;48.062;7.850;2023-04-16T12:48:04;9.50;99.90
4215;DHT22;2121;48.062;7.850;2023-04-16T12:50:30;9.40;99.90
4215;DHT22;2121;48.062;7.850;2023-04-16T12:52:56;9.40;99.90
4215;DHT22;2121;48.062;7.850;2023-04-16T12:55:22;9.30;99.90
4215;DHT22;2121;48.062;7.850;2023-04-16T12:57:49;9.30;99.90
4215;DHT22;2121;48.062;7.850;2023-04-16T13:00:17;9.30;99.90
4215;DHT22;2121;48.062;7.850;2023-04-16T13:02:44;9.40;99.90
4215;DHT22;2121;48.062;7.850;2023-04-16T13:05:10;9.60;99.90
4215;DHT22;2121;48.062;7.850;2023-04-16T13:07:37;10.00;99.90
4215;DHT22;2121;48.062;7.850;2023-04-16T13:10:04;10.30;99.90
4215;DHT22;2121;48.062;7.850;2023-04-16T13:12:30;10.60;99.90
4215;DHT22;2121;48.062;7.850;2023-04-16T13:14:57;10.80;99.90
4215;DHT22;2121;48.062;7.850;2023-04-16T13:17:23;10.90;99.90
4215;DHT22;2121;48.062;7.850;2023-04-16T13:19:48;11.20;99.90
4215;DHT22;2121;48.062;7.850;2023-04-16T13:22:14;11.70;99.90
4215;DHT22;2121;48.062;7.850;2023-04-16T13:24:40;12.30;99.90
4215;DHT22;2121;48.062;7.850;2023-04-16T13:27:06;12.40;99.90
4215;DHT22;2121;48.062;7.850;2023-04-16T13:29:33;12.10;99.90
4215;DHT22;2121;48.062;7.850;2023-04-16T13:32:01;11.90;99.90
4215;DHT22;2121;48.062;7.850;2023-04-16T13:34:26;12.00;99.90
4215;DHT22;2121;48.062;7.850;2023-04-16T13:36:52;12.90;99.90
4215;DHT22;2121;48.062;7.850;2023-04-16T13:39:18;13.90;99.90
4215;DHT22;2121;48.062;7.850;2023-04-16T13:41:43;14.80;99.90
4215;DHT22;2121;48.062;7.850;2023-04-16T13:44:09;14.90;99.90
4215;DHT22;2121;48.062;7.850;2023-04-16T13:46:35;14.20;99.90
4215;DHT22;2121;48.062;7.850;2023-04-16T13:49:01;13.80;99.90
4215;DHT22;2121;48.062;7.850;2023-04-16T13:51:26;13.70;99.90
4215;DHT22;2121;48.062;7.850;2023-04-16T13:53:53;13.70;99.90
4215;DHT22;2121;48.062;7.850;2023-04-16T13:56:20;13.60;99.90
4215;DHT22;2121;48.062;7.850;2023-04-16T13:58:46;13.10;99.90
4215;DHT22;2121;48.062;7.850;2023-04-16T14:01:11;12.90;99.90
4215;DHT22;2121;48.062;7.850;2023-04-16T14:03:37;12.50;99.90
4215;DHT22;2121;48.062;7.850;2023-04-16T14:06:04;11.80;99.90
4215;DHT22;2121;48.062;7.850;2023-04-16T14:08:31;11.80;99.90
4215;DHT22;2121;48.062;7.850;2023-04-16T14:10:57;11.90;99.90
4215;DHT22;2121;48.062;7.850;2023-04-16T14:13:23;12.10;99.90
4215;DHT22;2121;48.062;7.850;2023-04-16T14:15:52;12.40;99.90
4215;DHT22;2121;48.062;7.850;2023-04-16T14:18:18;12.50;99.90
4215;DHT22;2121;48.062;7.850;2023-04-16T14:20:44;12.50;99.90
4215;DHT22;2121;48.062;7.850;2023-04-16T14:23:09;12.00;99.90
4215;DHT22;2121;48.062;7.850;2023-04-16T14:25:37;11.60;99.90
4215;DHT22;2121;48.062;7.850;2023-04-16T14:28:03;11.60;99.90
4215;DHT22;2121;48.062;7.850;2023-04-16T14:30:28;11.70;99.90
4215;DHT22;2121;48.062;7.850;2023-04-16T14:32:54;11.70;99.90
4215;DHT22;2121;48.062;7.850;2023-04-16T14:35:20;11.70;99.90
4215;DHT22;2121;48.062;7.850;2023-04-16T14:37:46;11.70;99.90
4215;DHT22;2121;48.062;7.850;2023-04-16T14:40:12;11.60;99.90
4215;DHT22;2121;48.062;7.850;2023-04-16T14:42:38;11.40;99.90
4215;DHT22;2121;48.062;7.850;2023-04-16T14:45:04;10.90;99.90
4215;DHT22;2121;48.062;7.850;2023-04-16T14:47:32;10.70;99.90
4215;DHT22;2121;48.062;7.850;2023-04-16T14:49:59;10.50;99.90
4215;DHT22;2121;48.062;7.850;2023-04-16T14:52:25;10.60;99.90
4215;DHT22;2121;48.062;7.850;2023-04-16T14:54:52;10.60;99.90
4215;DHT22;2121;48.062;7.850;2023-04-16T14:57:19;10.70;99.90
4215;DHT22;2121;48.062;7.850;2023-04-16T14:59:46;10.70;99.90
4215;DHT22;2121;48.062;7.850;2023-04-16T15:02:12;10.80;99.90
4215;DHT22;2121;48.062;7.850;2023-04-16T15:04:39;10.80;99.90
4215;DHT22;2121;48.062;7.850;2023-04-16T15:07:04;10.60;99.90
4215;DHT22;2121;48.062;7.850;2023-04-16T15:09:30;10.40;99.90
4215;DHT22;2121;48.062;7.850;2023-04-16T15:11:56;10.20;99.90
4215;DHT22;2121;48.062;7.850;2023-04-16T15:14:22;10.10;99.90
4215;DHT22;2121;48.062;7.850;2023-04-16T15:16:48;10.00;99.90
4215;DHT22;2121;48.062;7.850;2023-04-16T15:19:14;9.80;99.90
4215;DHT22;2121;48.062;7.850;2023-04-16T15:21:40;9.80;99.90
4215;DHT22;2121;48.062;7.850;2023-04-16T15:24:06;9.70;99.90
4215;DHT22;2121;48.062;7.850;2023-04-16T15:26:32;9.70;99.90
4215;DHT22;2121;48.062;7.850;2023-04-16T15:28:58;9.60;99.90
4215;DHT22;2121;48.062;7.850;2023-04-16T15:31:23;9.50;99.90
4215;DHT22;2121;48.062;7.850;2023-04-16T15:33:50;9.60;99.90
4215;DHT22;2121;48.062;7.850;2023-04-16T15:36:16;9.60;99.90
4215;DHT22;2121;48.062;7.850;2023-04-16T15:38:42;9.60;99.90
4215;DHT22;2121;48.062;7.850;2023-04-16T15:41:08;9.70;99.90
4215;DHT22;2121;48.062;7.850;2023-04-16T15:43:34;9.80;99.90
4215;DHT22;2121;48.062;7.850;2023-04-16T15:46:00;9.70;99.90
4215;DHT22;2121;48.062;7.850;2023-04-16T15:48:26;9.70;99.90
4215;DHT22;2121;48.062;7.850;2023-04-16T15:50:53;9.70;99.90
4215;DHT22;2121;48.062;7.850;2023-04-16T15:53:18;9.80;99.90
4215;DHT22;2121;48.062;7.850;2023-04-16T15:55:44;9.90;99.90
4215;DHT22;2121;48.062;7.850;2023-04-16T15:58:10;9.70;99.90
4215;DHT22;2121;48.062;7.850;2023-04-16T16:00:37;9.60;99.90
4215;DHT22;2121;48.062;7.850;2023-04-16T16:03:03;9.60;99.90
4215;DHT22;2121;48.062;7.850;2023-04-16T16:05:29;9.80;99.90
4215;DHT22;2121;48.062;7.850;2023-04-16T16:07:56;9.70;99.90
4215;DHT22;2121;48.062;7.850;2023-04-16T16:10:22;9.60;99.90
4215;DHT22;2121;48.062;7.850;2023-04-16T16:12:48;9.50;99.90
4215;DHT22;2121;48.062;7.850;2023-04-16T16:15:14;9.50;99.90
4215;DHT22;2121;48.062;7.850;2023-04-16T16:17:40;9.50;99.90
4215;DHT22;2121;48.062;7.850;2023-04-16T16:20:06;9.50;99.90
4215;DHT22;2121;48.062;7.850;2023-04-16T16:22:35;9.60;99.90
4215;DHT22;2121;48.062;7.850;2023-04-16T16:25:02;9.60;99.90
4215;DHT22;2121;48.062;7.850;2023-04-16T16:27:29;9.80;99.90
4215;DHT22;2121;48.062;7.850;2023-04-16T16:29:55;9.90;99.90
4215;DHT22;2121;48.062;7.850;2023-04-16T16:32:21;9.80;99.90
4215;DHT22;2121;48.062;7.850;2023-04-16T16:34:46;9.80;99.90
4215;DHT22;2121;48.062;7.850;2023-04-16T16:37:13;9.80;99.90